Time;durP1;ratioP1;P1;durP2;ratioP2;P2;SDS_P1;SDS_P2;PMS_P1;PMS_P2;Temp;Humidity;BMP_temperature;BMP_pressure;BME280_temperature;BME280_humidity;BME280_pressure;Samples;Min_cycle;Max_cycle;Signal;HPM_P1;HPM_P2
2021/09/13 00:00:31;;;;;;;;;;;22.40;65.40;;;;;;5013826;28;19921;-63
2021/09/13 00:02:56;;;;;;;;;;;22.40;65.80;;;;;;5017964;28;20012;-63
2021/09/13 00:05:22;;;;;;;;;;;22.30;65.10;;;;;;5015774;28;19964;-63
2021/09/13 00:07:48;;;;;;;;;;;22.30;65.10;;;;;;5017705;28;20282;-63
2021/09/13 00:10:13;;;;;;;;;;;22.30;65.20;;;;;;5023335;28;20340;-62
2021/09/13 00:12:38;;;;;;;;;;;22.30;65.20;;;;;;5021892;28;20366;-63
2021/09/13 00:15:04;;;;;;;;;;;22.30;65.20;;;;;;5010598;28;19917;-60
2021/09/13 00:17:30;;;;;;;;;;;22.30;65.40;;;;;;5006977;28;19913;-60
2021/09/13 00:19:56;;;;;;;;;;;22.30;65.20;;;;;;5011493;28;19920;-63
2021/09/13 00:22:21;;;;;;;;;;;22.30;65.00;;;;;;5014996;28;20004;-62
2021/09/13 00:24:47;;;;;;;;;;;22.30;65.20;;;;;;5025243;28;19970;-63
2021/09/13 00:27:12;;;;;;;;;;;22.30;65.40;;;;;;5019428;28;19914;-64
2021/09/13 00:29:38;;;;;;;;;;;22.30;65.20;;;;;;5021160;28;20321;-62
2021/09/13 00:32:03;;;;;;;;;;;22.30;65.20;;;;;;5019967;28;19921;-63
2021/09/13 00:34:29;;;;;;;;;;;22.30;65.30;;;;;;5017734;28;20027;-63
2021/09/13 00:36:54;;;;;;;;;;;22.30;65.00;;;;;;5024473;28;19913;-62
2021/09/13 00:39:20;;;;;;;;;;;22.30;65.20;;;;;;5023933;28;20031;-60
2021/09/13 00:41:45;;;;;;;;;;;22.30;65.00;;;;;;5016984;28;20440;-63
2021/09/13 00:44:11;;;;;;;;;;;22.30;65.30;;;;;;5005064;28;19922;-62
2021/09/13 00:46:36;;;;;;;;;;;22.30;65.20;;;;;;5012132;28;19919;-63
2021/09/13 00:49:02;;;;;;;;;;;22.30;64.70;;;;;;5027413;28;19921;-63
2021/09/13 00:51:27;;;;;;;;;;;22.20;64.90;;;;;;5010950;28;19940;-62
2021/09/13 00:53:52;;;;;;;;;;;22.20;64.80;;;;;;5028403;28;20352;-60
2021/09/13 00:56:18;;;;;;;;;;;22.20;65.00;;;;;;5019430;28;19920;-63
2021/09/13 00:58:43;;;;;;;;;;;22.20;64.90;;;;;;5015161;28;19913;-60
2021/09/13 01:01:09;;;;;;;;;;;22.20;65.00;;;;;;5019135;28;19913;-62
2021/09/13 01:03:34;;;;;;;;;;;22.10;64.90;;;;;;5015342;28;20361;-62
2021/09/13 01:06:00;;;;;;;;;;;22.10;65.00;;;;;;5000499;28;19914;-64
2021/09/13 01:08:25;;;;;;;;;;;22.10;64.90;;;;;;5016494;28;19928;-63
2021/09/13 01:10:52;;;;;;;;;;;22.10;64.80;;;;;;5020658;28;19925;-63
2021/09/13 01:13:17;;;;;;;;;;;22.10;64.80;;;;;;5007521;28;19929;-63
2021/09/13 01:15:42;;;;;;;;;;;22.10;64.80;;;;;;5014038;28;19982;-64
2021/09/13 01:18:08;;;;;;;;;;;22.10;64.80;;;;;;5015019;28;19936;-63
2021/09/13 01:20:34;;;;;;;;;;;22.10;64.90;;;;;;5019026;28;19917;-61
2021/09/13 01:23:06;;;;;;;;;;;22.20;64.70;;;;;;5010434;28;19917;-60
2021/09/13 01:25:31;;;;;;;;;;;22.10;64.50;;;;;;5006834;28;20729;-63
2021/09/13 01:27:58;;;;;;;;;;;22.10;64.70;;;;;;5001389;28;19917;-63
2021/09/13 01:30:23;;;;;;;;;;;22.10;64.80;;;;;;5019980;28;19917;-63
2021/09/13 01:32:49;;;;;;;;;;;22.10;64.50;;;;;;5018996;28;20053;-63
2021/09/13 01:35:14;;;;;;;;;;;22.10;64.70;;;;;;5010504;28;19921;-64
2021/09/13 01:37:39;;;;;;;;;;;22.10;65.00;;;;;;5007712;28;20349;-63
2021/09/13 01:40:05;;;;;;;;;;;22.10;64.80;;;;;;5013987;28;19921;-63
2021/09/13 01:42:31;;;;;;;;;;;22.10;64.90;;;;;;5006398;28;19918;-62
2021/09/13 01:44:56;;;;;;;;;;;22.10;64.70;;;;;;5013113;28;19952;-63
2021/09/13 01:47:22;;;;;;;;;;;22.10;64.90;;;;;;5025233;28;20321;-62
2021/09/13 01:49:47;;;;;;;;;;;22.10;64.80;;;;;;5008418;28;19922;-63
2021/09/13 01:52:13;;;;;;;;;;;22.10;64.70;;;;;;5020951;28;19914;-63
2021/09/13 01:54:38;;;;;;;;;;;22.10;64.60;;;;;;5015217;28;19925;-62
2021/09/13 01:57:04;;;;;;;;;;;22.00;64.70;;;;;;5014943;28;19913;-62
2021/09/13 01:59:29;;;;;;;;;;;22.00;64.80;;;;;;5018599;28;19967;-63
2021/09/13 02:01:55;;;;;;;;;;;22.00;64.80;;;;;;5021895;28;19921;-62
2021/09/13 02:04:20;;;;;;;;;;;22.00;64.60;;;;;;5017765;28;20414;-63
2021/09/13 02:06:45;;;;;;;;;;;22.10;64.70;;;;;;5016517;28;19917;-63
2021/09/13 02:09:11;;;;;;;;;;;22.00;65.20;;;;;;5010291;28;19914;-61
2021/09/13 02:11:36;;;;;;;;;;;22.00;64.80;;;;;;5026756;28;20340;-61
2021/09/13 02:14:02;;;;;;;;;;;22.00;64.90;;;;;;5017066;28;20426;-62
2021/09/13 02:16:27;;;;;;;;;;;22.10;64.90;;;;;;5011486;28;19913;-63
2021/09/13 02:18:53;;;;;;;;;;;22.10;65.40;;;;;;5020907;28;19917;-62
2021/09/13 02:21:18;;;;;;;;;;;22.00;64.70;;;;;;5016360;28;19975;-62
2021/09/13 02:23:44;;;;;;;;;;;22.00;64.80;;;;;;5015180;28;20310;-62
2021/09/13 02:26:09;;;;;;;;;;;22.00;64.70;;;;;;5011846;28;19921;-62
2021/09/13 02:28:35;;;;;;;;;;;22.00;64.70;;;;;;5016008;28;19928;-63
2021/09/13 02:31:00;;;;;;;;;;;22.00;64.80;;;;;;5017123;28;19917;-62
2021/09/13 02:33:26;;;;;;;;;;;22.00;64.70;;;;;;5025038;28;19914;-63
2021/09/13 02:35:51;;;;;;;;;;;22.00;64.90;;;;;;5016509;28;20075;-63
2021/09/13 02:38:16;;;;;;;;;;;22.00;64.90;;;;;;5021407;28;19913;-62
2021/09/13 02:40:42;;;;;;;;;;;22.00;64.90;;;;;;5015138;28;20298;-62
2021/09/13 02:43:07;;;;;;;;;;;22.00;65.00;;;;;;5019197;28;19927;-62
2021/09/13 02:45:33;;;;;;;;;;;22.00;64.80;;;;;;5021455;28;19975;-63
2021/09/13 02:47:58;;;;;;;;;;;22.00;64.80;;;;;;5014992;28;19914;-63
2021/09/13 02:50:24;;;;;;;;;;;21.90;65.80;;;;;;5018922;28;20341;-62
2021/09/13 02:52:49;;;;;;;;;;;21.90;65.00;;;;;;5010188;28;19984;-63
2021/09/13 02:55:14;;;;;;;;;;;21.90;64.90;;;;;;5010332;28;19925;-63
2021/09/13 02:57:40;;;;;;;;;;;22.00;64.60;;;;;;5018011;28;19917;-62
2021/09/13 03:00:06;;;;;;;;;;;21.90;64.90;;;;;;5018471;28;20340;-62
2021/09/13 03:02:31;;;;;;;;;;;21.90;64.60;;;;;;5005634;28;19924;-62
2021/09/13 03:04:57;;;;;;;;;;;21.90;64.90;;;;;;5011603;28;19920;-62
2021/09/13 03:07:22;;;;;;;;;;;21.90;64.90;;;;;;5007432;28;19953;-61
2021/09/13 03:09:47;;;;;;;;;;;21.90;65.60;;;;;;5021940;28;19921;-62
2021/09/13 03:12:13;;;;;;;;;;;21.90;65.00;;;;;;5023478;28;20464;-63
2021/09/13 03:14:38;;;;;;;;;;;21.90;65.00;;;;;;5013998;28;19920;-61
2021/09/13 03:17:04;;;;;;;;;;;21.90;64.80;;;;;;5004057;28;19946;-63
2021/09/13 03:19:29;;;;;;;;;;;21.90;65.00;;;;;;5009876;28;19913;-63
2021/09/13 03:21:55;;;;;;;;;;;21.90;64.80;;;;;;5011611;28;19913;-62
2021/09/13 03:24:20;;;;;;;;;;;21.90;64.60;;;;;;5015549;28;19917;-63
2021/09/13 03:26:46;;;;;;;;;;;21.80;64.70;;;;;;5009390;28;19917;-63
2021/09/13 03:29:11;;;;;;;;;;;21.70;65.00;;;;;;5013763;28;20333;-62
2021/09/13 03:31:36;;;;;;;;;;;21.80;65.00;;;;;;5015497;28;20449;-62
2021/09/13 03:34:02;;;;;;;;;;;21.80;64.80;;;;;;5020459;28;19913;-63
2021/09/13 03:36:27;;;;;;;;;;;21.80;64.80;;;;;;5024539;28;20333;-62
2021/09/13 03:38:53;;;;;;;;;;;21.80;64.80;;;;;;5011880;28;19917;-62
2021/09/13 03:41:18;;;;;;;;;;;21.80;65.00;;;;;;5017125;28;19913;-62
2021/09/13 03:43:44;;;;;;;;;;;21.80;64.70;;;;;;5013480;28;20586;-62
2021/09/13 03:46:09;;;;;;;;;;;21.80;65.00;;;;;;5009632;28;19917;-61
2021/09/13 03:48:35;;;;;;;;;;;21.80;65.20;;;;;;5023604;28;19928;-63
2021/09/13 03:51:00;;;;;;;;;;;21.80;64.90;;;;;;5011969;28;20762;-62
2021/09/13 03:53:25;;;;;;;;;;;21.80;64.90;;;;;;5005335;28;19913;-62
2021/09/13 03:55:51;;;;;;;;;;;21.90;65.00;;;;;;5019537;28;19917;-63
2021/09/13 03:58:16;;;;;;;;;;;21.90;65.00;;;;;;5017082;28;20602;-62
2021/09/13 04:00:42;;;;;;;;;;;21.80;64.80;;;;;;5005258;28;20318;-62
2021/09/13 04:03:12;;;;;;;;;;;21.80;65.20;;;;;;5009773;28;20004;-61
2021/09/13 04:05:45;;;;;;;;;;;21.80;65.00;;;;;;5005071;28;20551;-62
2021/09/13 04:13:23;;;;;;;;;;;21.80;65.00;;;;;;5015479;28;19963;-62
2021/09/13 04:15:48;;;;;;;;;;;21.80;64.90;;;;;;5017355;28;19914;-62
2021/09/13 04:18:14;;;;;;;;;;;21.70;64.90;;;;;;5010208;28;19914;-62
2021/09/13 04:20:39;;;;;;;;;;;21.70;64.80;;;;;;5014997;28;19920;-62
2021/09/13 04:23:04;;;;;;;;;;;21.70;65.10;;;;;;5031216;28;20027;-62
2021/09/13 04:25:30;;;;;;;;;;;21.70;65.10;;;;;;5013600;28;19914;-63
2021/09/13 04:27:55;;;;;;;;;;;21.80;65.20;;;;;;5018460;28;19913;-63
2021/09/13 04:30:23;;;;;;;;;;;21.80;65.20;;;;;;5013039;28;20302;-63
2021/09/13 04:32:48;;;;;;;;;;;21.80;65.10;;;;;;5009831;28;20386;-61
2021/09/13 04:35:14;;;;;;;;;;;21.80;64.60;;;;;;5016042;28;19920;-62
2021/09/13 04:37:39;;;;;;;;;;;21.80;64.50;;;;;;5005381;28;19913;-63
2021/09/13 04:40:05;;;;;;;;;;;21.60;64.80;;;;;;5016237;28;20362;-62
2021/09/13 04:42:30;;;;;;;;;;;21.60;64.90;;;;;;5012692;28;19920;-63
2021/09/13 04:44:56;;;;;;;;;;;21.60;65.00;;;;;;5024685;28;20325;-63
2021/09/13 04:47:21;;;;;;;;;;;21.50;65.20;;;;;;5013821;28;19917;-63
2021/09/13 04:49:47;;;;;;;;;;;21.60;65.00;;;;;;5022422;28;19928;-62
2021/09/13 04:52:12;;;;;;;;;;;21.50;65.00;;;;;;5006416;28;20562;-63
2021/09/13 04:54:38;;;;;;;;;;;21.60;65.70;;;;;;5016501;28;19963;-63
2021/09/13 04:57:03;;;;;;;;;;;21.60;65.40;;;;;;5013981;28;19920;-61
2021/09/13 04:59:28;;;;;;;;;;;21.60;65.40;;;;;;5021826;28;19919;-63
2021/09/13 05:01:54;;;;;;;;;;;21.60;65.60;;;;;;5017619;28;20298;-63
2021/09/13 05:04:19;;;;;;;;;;;21.60;65.80;;;;;;5016066;28;19918;-63
2021/09/13 05:06:45;;;;;;;;;;;21.60;65.50;;;;;;5015358;28;19914;-63
2021/09/13 05:09:10;;;;;;;;;;;21.60;65.50;;;;;;5002467;28;19913;-61
2021/09/13 05:11:36;;;;;;;;;;;21.60;65.30;;;;;;5010189;28;19920;-61
2021/09/13 05:14:01;;;;;;;;;;;21.60;65.10;;;;;;5009691;28;20416;-62
2021/09/13 05:16:27;;;;;;;;;;;21.50;65.30;;;;;;5014136;28;19925;-62
2021/09/13 05:18:52;;;;;;;;;;;21.60;65.50;;;;;;5008535;28;19956;-63
2021/09/13 05:21:18;;;;;;;;;;;21.60;65.50;;;;;;5022823;28;20263;-61
2021/09/13 05:23:43;;;;;;;;;;;21.50;65.40;;;;;;5013544;28;19917;-63
2021/09/13 05:26:08;;;;;;;;;;;21.50;65.50;;;;;;5017900;28;19917;-63
2021/09/13 05:28:34;;;;;;;;;;;21.50;66.20;;;;;;5007311;28;19979;-62
2021/09/13 05:30:59;;;;;;;;;;;21.50;66.30;;;;;;4999877;28;20859;-64
2021/09/13 05:33:25;;;;;;;;;;;21.60;65.90;;;;;;5013508;28;19913;-62
2021/09/13 05:35:50;;;;;;;;;;;21.50;66.00;;;;;;5020860;28;19921;-63
2021/09/13 05:38:16;;;;;;;;;;;21.50;66.10;;;;;;5020730;28;20297;-63
2021/09/13 05:40:43;;;;;;;;;;;21.60;66.30;;;;;;5005799;28;22594;-62
2021/09/13 05:43:08;;;;;;;;;;;21.60;66.40;;;;;;5014430;28;20177;-63
2021/09/13 05:45:35;;;;;;;;;;;21.50;66.40;;;;;;5005659;28;19924;-63
2021/09/13 05:48:00;;;;;;;;;;;21.60;66.30;;;;;;5016040;28;20363;-64
2021/09/13 05:50:25;;;;;;;;;;;21.50;66.50;;;;;;5020209;28;19925;-63
2021/09/13 05:52:51;;;;;;;;;;;21.60;66.80;;;;;;5020812;28;19971;-62
2021/09/13 05:55:16;;;;;;;;;;;21.70;66.70;;;;;;5020482;28;19983;-63
2021/09/13 05:57:42;;;;;;;;;;;21.60;66.40;;;;;;5021172;28;19928;-62
2021/09/13 06:00:08;;;;;;;;;;;21.60;66.50;;;;;;5020532;28;19913;-62
2021/09/13 06:02:33;;;;;;;;;;;21.60;66.60;;;;;;5017202;28;19913;-62
2021/09/13 06:04:58;;;;;;;;;;;21.60;67.40;;;;;;5020472;28;20386;-63
2021/09/13 06:07:24;;;;;;;;;;;21.70;67.00;;;;;;5020283;28;19913;-62
2021/09/13 06:09:49;;;;;;;;;;;21.70;66.60;;;;;;5013613;28;20075;-63
2021/09/13 06:12:16;;;;;;;;;;;21.70;66.80;;;;;;5014501;28;19917;-64
2021/09/13 06:14:44;;;;;;;;;;;21.70;66.70;;;;;;5004059;28;19948;-63
2021/09/13 06:17:10;;;;;;;;;;;21.60;66.60;;;;;;5006489;28;20056;-62
2021/09/13 06:19:36;;;;;;;;;;;21.60;66.80;;;;;;5016536;28;20749;-62
2021/09/13 06:22:02;;;;;;;;;;;21.60;66.40;;;;;;5011801;28;19921;-62
2021/09/13 06:24:27;;;;;;;;;;;21.60;66.60;;;;;;5016547;28;19928;-62
2021/09/13 06:26:53;;;;;;;;;;;21.60;67.40;;;;;;5013924;28;20151;-64
2021/09/13 06:29:18;;;;;;;;;;;21.70;67.10;;;;;;5018920;28;19983;-63
2021/09/13 06:31:44;;;;;;;;;;;21.70;66.50;;;;;;5004954;28;20294;-62
2021/09/13 06:34:15;;;;;;;;;;;21.70;65.80;;;;;;5000666;28;19918;-63
2021/09/13 06:36:40;;;;;;;;;;;21.70;65.80;;;;;;5005645;28;19917;-63
2021/09/13 06:39:06;;;;;;;;;;;21.70;67.00;;;;;;5006219;28;19917;-62
2021/09/13 06:41:31;;;;;;;;;;;21.70;66.50;;;;;;5019727;28;19921;-62
2021/09/13 06:43:57;;;;;;;;;;;21.70;66.20;;;;;;5012040;28;19921;-62
2021/09/13 06:46:32;;;;;;;;;;;21.70;66.10;;;;;;5020540;28;19917;-63
2021/09/13 06:48:58;;;;;;;;;;;21.60;66.10;;;;;;5006926;28;20562;-62
2021/09/13 06:51:23;;;;;;;;;;;21.60;66.00;;;;;;5003357;28;19921;-62
2021/09/13 06:53:49;;;;;;;;;;;21.60;66.10;;;;;;5011112;28;19914;-62
2021/09/13 06:56:14;;;;;;;;;;;21.50;65.90;;;;;;5012896;28;20161;-62
2021/09/13 06:58:40;;;;;;;;;;;21.50;65.90;;;;;;5015923;28;19971;-62
2021/09/13 07:01:05;;;;;;;;;;;21.60;66.00;;;;;;5003772;28;20380;-63
2021/09/13 07:03:30;;;;;;;;;;;21.60;66.20;;;;;;5006520;28;19917;-62
2021/09/13 07:05:56;;;;;;;;;;;21.60;66.30;;;;;;5007260;28;19918;-61
2021/09/13 07:08:21;;;;;;;;;;;21.60;66.40;;;;;;5007096;28;19924;-63
2021/09/13 07:10:48;;;;;;;;;;;21.60;66.60;;;;;;5019964;28;20370;-62
2021/09/13 07:13:13;;;;;;;;;;;21.60;66.60;;;;;;5007713;28;20511;-62
2021/09/13 07:15:39;;;;;;;;;;;21.50;67.10;;;;;;5002731;28;19914;-63
2021/09/13 07:18:04;;;;;;;;;;;21.60;66.80;;;;;;4999670;28;20318;-63
2021/09/13 07:20:29;;;;;;;;;;;21.50;66.60;;;;;;5006460;28;19999;-62
2021/09/13 07:22:55;;;;;;;;;;;21.50;66.40;;;;;;5007892;28;20556;-61
2021/09/13 07:25:20;;;;;;;;;;;21.50;66.30;;;;;;5009144;28;19947;-61
2021/09/13 07:27:46;;;;;;;;;;;21.50;66.10;;;;;;5004628;28;20294;-62
2021/09/13 07:30:11;;;;;;;;;;;21.60;66.30;;;;;;5009611;28;19972;-61
2021/09/13 07:32:37;;;;;;;;;;;21.50;66.20;;;;;;5004219;28;19914;-62
2021/09/13 07:35:04;;;;;;;;;;;21.60;66.20;;;;;;4995642;28;20600;-62
2021/09/13 07:37:29;;;;;;;;;;;21.60;66.40;;;;;;5002093;28;19920;-65
2021/09/13 07:39:56;;;;;;;;;;;21.60;66.60;;;;;;5014217;28;20309;-62
2021/09/13 07:42:23;;;;;;;;;;;21.50;66.60;;;;;;5003226;28;20361;-62
2021/09/13 07:44:49;;;;;;;;;;;21.50;66.20;;;;;;4998980;28;19918;-62
2021/09/13 07:47:14;;;;;;;;;;;21.60;66.50;;;;;;4999540;28;20387;-62
2021/09/13 07:49:40;;;;;;;;;;;21.50;66.30;;;;;;4998235;28;19925;-62
2021/09/13 07:52:05;;;;;;;;;;;21.60;66.40;;;;;;4999325;28;19914;-62
2021/09/13 07:54:30;;;;;;;;;;;21.60;66.50;;;;;;5012715;28;20333;-62
2021/09/13 07:56:56;;;;;;;;;;;21.50;66.20;;;;;;5008836;28;19925;-62
2021/09/13 07:59:21;;;;;;;;;;;21.60;66.30;;;;;;5008733;28;19917;-63
2021/09/13 08:01:47;;;;;;;;;;;21.60;66.30;;;;;;5018411;28;20422;-62
2021/09/13 08:04:12;;;;;;;;;;;21.50;66.40;;;;;;5011214;28;19944;-61
2021/09/13 08:06:38;;;;;;;;;;;21.60;66.40;;;;;;5011421;23;19975;-57
2021/09/13 08:09:06;;;;;;;;;;;21.50;66.30;;;;;;4995739;28;19920;-58
2021/09/13 08:11:32;;;;;;;;;;;21.50;66.10;;;;;;5002656;28;20374;-58
2021/09/13 08:13:57;;;;;;;;;;;21.50;66.30;;;;;;5015945;28;19913;-57
2021/09/13 08:16:23;;;;;;;;;;;21.50;66.40;;;;;;5009278;28;20426;-57
2021/09/13 08:18:50;;;;;;;;;;;21.50;66.40;;;;;;5020488;28;19913;-58
2021/09/13 08:21:17;;;;;;;;;;;21.50;66.40;;;;;;5002803;28;19921;-58
2021/09/13 08:23:43;;;;;;;;;;;21.60;66.40;;;;;;5015443;28;19922;-58
2021/09/13 08:26:08;;;;;;;;;;;21.50;66.30;;;;;;5011991;28;19988;-60
2021/09/13 08:28:34;;;;;;;;;;;21.50;66.00;;;;;;5019822;28;19917;-59
2021/09/13 08:30:59;;;;;;;;;;;21.50;65.80;;;;;;5008206;28;20390;-61
2021/09/13 08:33:25;;;;;;;;;;;21.50;66.00;;;;;;4984322;28;19918;-61
2021/09/13 08:35:53;;;;;;;;;;;21.50;66.00;;;;;;5033859;28;19956;-60
2021/09/13 08:38:19;;;;;;;;;;;21.50;66.10;;;;;;5007804;28;20278;-59
2021/09/13 08:40:44;;;;;;;;;;;21.50;66.10;;;;;;5017360;28;20013;-62
2021/09/13 08:43:10;;;;;;;;;;;21.50;66.10;;;;;;5008456;28;19917;-60
2021/09/13 08:45:40;;;;;;;;;;;21.50;66.10;;;;;;5010117;28;19917;-59
2021/09/13 08:48:14;;;;;;;;;;;21.50;65.70;;;;;;5009163;28;19914;-59
2021/09/13 08:51:03;;;;;;;;;;;21.40;66.20;;;;;;5013004;28;20016;-59
2021/09/13 08:53:30;;;;;;;;;;;21.50;66.20;;;;;;5010586;28;19923;-61
2021/09/13 08:55:55;;;;;;;;;;;21.50;66.20;;;;;;5010849;28;19917;-58
2021/09/13 08:58:24;;;;;;;;;;;21.40;66.10;;;;;;5004185;28;19979;-60
2021/09/13 09:00:50;;;;;;;;;;;21.50;66.00;;;;;;5009051;28;19913;-60
2021/09/13 09:03:15;;;;;;;;;;;21.50;65.70;;;;;;5002509;28;20595;-58
2021/09/13 09:05:42;;;;;;;;;;;21.50;65.60;;;;;;5017926;28;19921;-58
2021/09/13 09:08:10;;;;;;;;;;;21.50;65.80;;;;;;5017381;28;20691;-58
2021/09/13 09:10:35;;;;;;;;;;;21.50;65.90;;;;;;5009574;28;19922;-58
2021/09/13 09:13:12;;;;;;;;;;;21.50;65.90;;;;;;5020614;28;19913;-60
2021/09/13 09:15:57;;;;;;;;;;;21.50;66.00;;;;;;5014625;28;20400;-60
2021/09/13 09:18:23;;;;;;;;;;;21.50;66.00;;;;;;5012229;28;19922;-59
2021/09/13 09:20:49;;;;;;;;;;;21.40;66.00;;;;;;5005107;28;19913;-58
2021/09/13 09:23:14;;;;;;;;;;;21.50;66.00;;;;;;5013457;28;19928;-59
2021/09/13 09:25:41;;;;;;;;;;;21.40;66.10;;;;;;5011426;28;21296;-60
2021/09/13 09:28:11;;;;;;;;;;;21.50;66.20;;;;;;5022146;28;20359;-57
2021/09/13 09:30:37;;;;;;;;;;;21.50;66.20;;;;;;5001836;28;20396;-60
2021/09/13 09:33:05;;;;;;;;;;;21.50;66.30;;;;;;5017469;28;19950;-60
2021/09/13 09:35:39;;;;;;;;;;;21.50;66.30;;;;;;4995212;28;19971;-60
2021/09/13 09:38:04;;;;;;;;;;;21.50;66.10;;;;;;5008756;28;19914;-60
2021/09/13 09:40:30;;;;;;;;;;;21.50;66.20;;;;;;5009202;28;19936;-59
2021/09/13 09:42:55;;;;;;;;;;;21.40;66.30;;;;;;5012957;28;19913;-59
2021/09/13 09:45:20;;;;;;;;;;;21.40;66.30;;;;;;5012069;28;19917;-61
2021/09/13 09:48:02;;;;;;;;;;;21.40;66.30;;;;;;5015276;28;20020;-57
2021/09/13 09:50:29;;;;;;;;;;;21.40;66.20;;;;;;5006385;28;19919;-59
2021/09/13 09:52:54;;;;;;;;;;;21.40;65.90;;;;;;5013416;28;19913;-61
2021/09/13 09:55:20;;;;;;;;;;;21.40;65.90;;;;;;5015920;28;19928;-60
2021/09/13 09:58:03;;;;;;;;;;;21.40;65.90;;;;;;5010152;28;19928;-58
2021/09/13 10:00:30;;;;;;;;;;;21.40;66.00;;;;;;5013412;28;19920;-59
2021/09/13 10:02:55;;;;;;;;;;;21.40;66.10;;;;;;5008855;28;19914;-58
2021/09/13 10:05:21;;;;;;;;;;;21.40;66.10;;;;;;4999156;28;19924;-60
2021/09/13 10:07:48;;;;;;;;;;;21.40;65.40;;;;;;5000551;28;20291;-59
2021/09/13 10:10:13;;;;;;;;;;;21.40;65.80;;;;;;5002447;28;19914;-59
2021/09/13 10:12:39;;;;;;;;;;;21.50;65.20;;;;;;5012720;28;20409;-60
2021/09/13 10:15:05;;;;;;;;;;;21.50;65.70;;;;;;5023510;28;20016;-58
2021/09/13 10:17:30;;;;;;;;;;;21.40;66.30;;;;;;5018794;28;19917;-58
2021/09/13 10:19:55;;;;;;;;;;;21.40;65.80;;;;;;5004807;28;19960;-59
2021/09/13 10:22:21;;;;;;;;;;;21.40;65.90;;;;;;5015564;28;19913;-59
2021/09/13 10:24:47;;;;;;;;;;;21.40;65.90;;;;;;5008076;28;20365;-59
2021/09/13 10:27:15;;;;;;;;;;;21.40;65.90;;;;;;5020951;28;19914;-58
2021/09/13 10:29:41;;;;;;;;;;;21.40;66.00;;;;;;5021877;28;20037;-57
2021/09/13 10:32:16;;;;;;;;;;;21.30;66.00;;;;;;5009563;28;19972;-59
2021/09/13 10:34:41;;;;;;;;;;;21.40;66.00;;;;;;5007526;28;19913;-58
2021/09/13 10:37:26;;;;;;;;;;;21.50;66.00;;;;;;5012287;28;19917;-59
2021/09/13 10:40:02;;;;;;;;;;;21.40;65.90;;;;;;5008284;28;20362;-58
2021/09/13 10:42:40;;;;;;;;;;;21.40;65.90;;;;;;5009166;28;19928;-60
2021/09/13 10:45:14;;;;;;;;;;;21.40;66.50;;;;;;5009260;28;20520;-60
2021/09/13 10:47:41;;;;;;;;;;;21.40;65.80;;;;;;5021611;28;19940;-58
2021/09/13 10:50:27;;;;;;;;;;;21.40;65.90;;;;;;5007128;28;20055;-60
2021/09/13 10:52:53;;;;;;;;;;;21.40;66.00;;;;;;4999153;28;19974;-58
2021/09/13 10:55:19;;;;;;;;;;;21.40;65.90;;;;;;5012241;28;20387;-61
2021/09/13 10:57:51;;;;;;;;;;;21.40;65.80;;;;;;5003507;28;19924;-61
2021/09/13 11:00:16;;;;;;;;;;;21.40;65.90;;;;;;5018510;28;19920;-60
2021/09/13 11:02:41;;;;;;;;;;;21.40;65.60;;;;;;5018470;28;20301;-58
2021/09/13 11:05:20;;;;;;;;;;;21.40;65.80;;;;;;5010959;28;19921;-59
2021/09/13 11:08:04;;;;;;;;;;;21.50;65.70;;;;;;5011970;28;19925;-58
2021/09/13 11:10:42;;;;;;;;;;;21.50;65.90;;;;;;5012170;28;19913;-59
2021/09/13 11:13:08;;;;;;;;;;;21.40;65.90;;;;;;5020780;28;20219;-58
2021/09/13 11:15:33;;;;;;;;;;;21.40;65.90;;;;;;5001816;28;20734;-61
2021/09/13 11:17:59;;;;;;;;;;;21.40;65.80;;;;;;5005512;28;19921;-61
2021/09/13 11:20:27;;;;;;;;;;;21.40;65.70;;;;;;5021619;28;19917;-58
2021/09/13 11:22:53;;;;;;;;;;;21.40;65.10;;;;;;5014619;28;19913;-61
2021/09/13 11:25:18;;;;;;;;;;;21.40;65.00;;;;;;5002250;28;20465;-58
2021/09/13 11:27:44;;;;;;;;;;;21.40;65.30;;;;;;5032632;28;19914;-59
2021/09/13 11:30:09;;;;;;;;;;;21.40;64.90;;;;;;5010150;28;19917;-61
2021/09/13 11:32:34;;;;;;;;;;;21.40;64.90;;;;;;5007490;28;20329;-59
2021/09/13 11:35:00;;;;;;;;;;;21.50;64.50;;;;;;5019277;28;19993;-60
2021/09/13 11:37:26;;;;;;;;;;;21.50;64.70;;;;;;5003935;28;20329;-60
2021/09/13 11:39:52;;;;;;;;;;;21.40;64.80;;;;;;5020291;28;19921;-60
2021/09/13 11:42:19;;;;;;;;;;;21.40;64.70;;;;;;5016212;28;20497;-60
2021/09/13 11:44:46;;;;;;;;;;;21.50;63.90;;;;;;5001590;28;19921;-58
2021/09/13 11:47:12;;;;;;;;;;;21.50;64.40;;;;;;5013551;28;19988;-60
2021/09/13 11:49:39;;;;;;;;;;;21.40;64.70;;;;;;5010066;28;20705;-59
2021/09/13 11:52:05;;;;;;;;;;;21.40;64.80;;;;;;5020619;28;19913;-58
2021/09/13 11:54:31;;;;;;;;;;;21.40;64.60;;;;;;5020080;28;19917;-57
2021/09/13 11:56:57;;;;;;;;;;;21.40;64.50;;;;;;5010600;28;19919;-59
2021/09/13 11:59:22;;;;;;;;;;;21.40;64.50;;;;;;5014734;28;19943;-58
2021/09/13 12:01:55;;;;;;;;;;;21.40;63.90;;;;;;5011117;28;19920;-59
2021/09/13 12:04:20;;;;;;;;;;;21.40;63.80;;;;;;5010898;28;19995;-61
2021/09/13 12:07:02;;;;;;;;;;;21.40;63.60;;;;;;5013753;28;20005;-58
2021/09/13 12:09:27;;;;;;;;;;;21.50;63.90;;;;;;4997927;28;20439;-59
2021/09/13 12:11:53;;;;;;;;;;;21.40;63.90;;;;;;5011826;28;20386;-57
2021/09/13 12:14:18;;;;;;;;;;;21.40;64.20;;;;;;5004175;28;19913;-61
2021/09/13 12:17:03;;;;;;;;;;;21.40;64.20;;;;;;4998257;28;19921;-59
2021/09/13 12:19:28;;;;;;;;;;;21.40;64.40;;;;;;5011286;28;21343;-57
2021/09/13 12:21:58;;;;;;;;;;;21.40;64.00;;;;;;5017688;28;19917;-57
2021/09/13 12:24:23;;;;;;;;;;;21.40;64.60;;;;;;5017456;28;20117;-59
2021/09/13 12:26:49;;;;;;;;;;;21.40;64.60;;;;;;5012726;28;20468;-59
2021/09/13 12:29:15;;;;;;;;;;;21.30;64.80;;;;;;5019019;28;19983;-58
2021/09/13 12:31:41;;;;;;;;;;;21.40;64.70;;;;;;5004438;28;19914;-61
2021/09/13 12:34:06;;;;;;;;;;;21.40;64.50;;;;;;5007268;28;20338;-57
2021/09/13 12:36:32;;;;;;;;;;;21.40;63.40;;;;;;5020887;28;19913;-60
2021/09/13 12:38:57;;;;;;;;;;;21.40;64.30;;;;;;5006902;28;20449;-61
2021/09/13 12:41:39;;;;;;;;;;;21.40;64.20;;;;;;5008914;28;19917;-59
2021/09/13 12:44:14;;;;;;;;;;;21.40;64.10;;;;;;5016652;28;20127;-58
2021/09/13 12:46:43;;;;;;;;;;;21.40;64.20;;;;;;5012328;28;20441;-58
2021/09/13 12:49:08;;;;;;;;;;;21.40;64.00;;;;;;5013283;28;19913;-59
2021/09/13 12:51:35;;;;;;;;;;;21.40;63.60;;;;;;5011013;28;19921;-60
2021/09/13 12:54:02;;;;;;;;;;;21.40;63.60;;;;;;5017733;28;19944;-60
2021/09/13 12:56:28;;;;;;;;;;;21.50;63.70;;;;;;5006134;28;19920;-60
2021/09/13 12:59:09;;;;;;;;;;;21.50;63.70;;;;;;5014560;28;19917;-61
2021/09/13 13:01:36;;;;;;;;;;;21.50;63.50;;;;;;5011574;28;19914;-61
2021/09/13 13:04:05;;;;;;;;;;;21.50;63.70;;;;;;5017265;28;19925;-60
2021/09/13 13:06:31;;;;;;;;;;;21.40;63.90;;;;;;5009751;28;19917;-59
2021/09/13 13:08:57;;;;;;;;;;;21.40;64.10;;;;;;5010055;28;19977;-60
2021/09/13 13:11:22;;;;;;;;;;;21.40;64.20;;;;;;5025022;28;19913;-61
2021/09/13 13:13:47;;;;;;;;;;;21.40;63.40;;;;;;5016158;28;19917;-59
2021/09/13 13:16:13;;;;;;;;;;;21.40;63.30;;;;;;5004312;28;20357;-60
2021/09/13 13:18:39;;;;;;;;;;;21.40;63.60;;;;;;5028481;28;19919;-59
2021/09/13 13:21:05;;;;;;;;;;;21.40;63.70;;;;;;5015819;28;19955;-59
2021/09/13 13:23:30;;;;;;;;;;;21.40;63.40;;;;;;5010814;28;20347;-58
2021/09/13 13:25:56;;;;;;;;;;;21.40;62.80;;;;;;5013984;28;19918;-57
2021/09/13 13:28:22;;;;;;;;;;;21.40;62.90;;;;;;5016942;28;19920;-60
2021/09/13 13:30:48;;;;;;;;;;;21.40;62.70;;;;;;5008700;28;19920;-58
2021/09/13 13:33:13;;;;;;;;;;;21.50;62.50;;;;;;5019758;28;19921;-60
2021/09/13 13:35:39;;;;;;;;;;;21.50;62.90;;;;;;5018218;28;19935;-58
2021/09/13 13:38:05;;;;;;;;;;;21.50;61.40;;;;;;5017017;28;19921;-59
2021/09/13 13:40:30;;;;;;;;;;;21.50;62.80;;;;;;5009421;28;19913;-60
2021/09/13 13:42:56;;;;;;;;;;;21.50;63.20;;;;;;5020287;28;19953;-61
2021/09/13 13:45:21;;;;;;;;;;;21.50;61.80;;;;;;5006580;28;20428;-58
2021/09/13 13:47:47;;;;;;;;;;;21.50;61.90;;;;;;5017261;28;19919;-58
2021/09/13 13:50:13;;;;;;;;;;;21.50;61.30;;;;;;5003827;28;20369;-58
2021/09/13 13:52:39;;;;;;;;;;;21.50;62.30;;;;;;5004433;28;19920;-60
2021/09/13 13:55:05;;;;;;;;;;;21.50;62.80;;;;;;5008952;28;20297;-59
2021/09/13 13:57:31;;;;;;;;;;;21.50;60.80;;;;;;5005229;28;19921;-58
2021/09/13 13:59:57;;;;;;;;;;;21.50;62.50;;;;;;5013486;28;19928;-58
2021/09/13 14:02:22;;;;;;;;;;;21.50;63.00;;;;;;5024245;28;19913;-58
2021/09/13 14:04:48;;;;;;;;;;;21.40;62.20;;;;;;5014709;28;20378;-60
2021/09/13 14:07:14;;;;;;;;;;;21.50;63.10;;;;;;5033839;22;19929;-62
2021/09/13 14:09:39;;;;;;;;;;;21.50;62.90;;;;;;5033090;28;19914;-63
2021/09/13 14:12:05;;;;;;;;;;;21.40;63.10;;;;;;5038118;28;19913;-63
2021/09/13 14:14:31;;;;;;;;;;;21.50;61.30;;;;;;5037015;28;20239;-63
2021/09/13 14:16:56;;;;;;;;;;;21.50;63.00;;;;;;5027711;28;19921;-62